.
WxDataArchive / Data Records for 2011-10-08
2011-10-07 October 2011 2011-10-09

Data Records for Saturday, 08 October 2011

Time	Temp	Chill	HIndex	Humid	Dewpt	 Wind 	HiWind	WindDir	Rain 	Barom 
-----	----	-----	------	-----	-----	------	------	-------	-----	----- 
00:00	55.3	55.3	55.3	88	51.8	0	0	---	0.00	30.335 
00:05	55.1	55.1	55.1	88	51.6	0	0	---	0.00	30.335 
00:10	55.0	55.0	55.0	88	51.5	0	0	---	0.00	30.335 
00:15	54.8	54.8	54.8	89	51.6	0	0	---	0.00	30.327 
00:20	54.7	54.7	54.7	89	51.5	0	0	---	0.00	30.327 
00:25	54.5	54.5	54.5	89	51.3	0	0	---	0.00	30.327 
00:30	54.4	54.4	54.4	89	51.2	0	0	---	0.00	30.325 
00:35	54.4	54.4	54.4	89	51.2	0	0	---	0.00	30.325 
00:40	54.2	54.2	54.2	90	51.3	0	0	---	0.00	30.325 
00:45	54.2	54.2	54.2	90	51.3	0	0	---	0.00	30.326 
00:50	54.1	54.1	54.1	90	51.2	0	0	---	0.00	30.326 
00:55	53.9	53.9	53.9	90	51.0	0	0	---	0.00	30.326 
01:00	53.8	53.8	53.8	90	50.9	0	0	---	0.00	30.324 
01:05	53.6	53.6	53.6	91	51.0	0	0	---	0.00	30.324 
01:10	53.6	53.6	53.6	91	51.0	0	0	---	0.00	30.324 
01:15	53.5	53.5	53.5	91	50.9	0	0	---	0.00	30.320 
01:20	53.2	53.2	53.2	91	50.6	0	0	---	0.00	30.320 
01:25	53.1	53.1	53.1	91	50.5	0	0	---	0.00	30.320 
01:30	52.9	52.9	52.9	91	50.3	0	0	---	0.00	30.321 
01:35	52.8	52.8	52.8	91	50.2	0	0	---	0.00	30.321 
01:40	52.6	52.6	52.6	91	50.0	0	0	---	0.00	30.321 
01:45	52.5	52.5	52.5	91	49.9	0	0	---	0.00	30.319 
01:50	52.5	52.5	52.5	92	50.2	0	0	---	0.00	30.319 
01:55	52.5	52.5	52.5	92	50.2	0	0	---	0.00	30.319 
02:00	52.3	52.3	52.3	92	50.0	0	0	---	0.00	30.315 
02:05	52.3	52.3	52.3	92	50.0	0	0	---	0.00	30.315 
02:10	52.2	52.2	52.2	92	49.9	0	0	---	0.00	30.315 
02:15	52.0	52.0	52.0	92	49.7	0	0	---	0.00	30.315 
02:20	52.0	52.0	52.0	92	49.7	0	0	---	0.00	30.315 
02:25	51.9	51.9	51.9	92	49.6	0	0	---	0.00	30.315 
02:30	51.7	51.7	51.7	92	49.5	0	0	---	0.00	30.314 
02:35	51.7	51.7	51.7	93	49.7	0	0	---	0.00	30.314 
02:40	51.7	51.7	51.7	93	49.7	0	0	---	0.00	30.314 
02:45	51.7	51.7	51.7	93	49.7	0	0	---	0.00	30.316 
02:50	51.9	51.9	51.9	93	49.9	0	0	---	0.00	30.316 
02:55	51.9	51.9	51.9	93	49.9	0	0	---	0.00	30.316 
03:00	52.0	52.0	52.0	93	50.0	0	0	---	0.00	30.317 
03:05	52.0	52.0	52.0	93	50.0	0	0	---	0.00	30.317 
03:10	52.0	52.0	52.0	93	50.0	0	0	---	0.00	30.317 
03:15	52.2	52.2	52.2	93	50.2	0	0	---	0.00	30.317 
03:20	52.2	52.2	52.2	93	50.2	0	0	---	0.00	30.317 
03:25	52.2	52.2	52.2	94	50.5	0	0	---	0.00	30.317 
03:30	52.2	52.2	52.2	94	50.5	0	0	---	0.00	30.320 
03:35	52.2	52.2	52.2	94	50.5	0	0	---	0.00	30.320 
03:40	52.2	52.2	52.2	94	50.5	0	0	---	0.00	30.320 
03:45	52.2	52.2	52.2	94	50.5	0	0	---	0.00	30.323 
03:50	52.0	52.0	52.0	94	50.3	0	0	---	0.00	30.323 
03:55	52.0	52.0	52.0	94	50.3	0	0	---	0.00	30.323 
04:00	51.9	51.9	51.9	94	50.2	0	0	---	0.00	30.323 
04:05	51.7	51.7	51.7	94	50.0	0	0	---	0.00	30.323 
04:10	51.6	51.6	51.6	94	49.9	0	0	---	0.00	30.323 
04:15	51.4	51.4	51.4	94	49.7	0	0	---	0.00	30.326 
04:20	51.3	51.3	51.3	94	49.6	0	0	---	0.00	30.326 
04:25	51.1	51.1	51.1	94	49.4	0	0	---	0.00	30.326 
04:30	51.0	51.0	51.0	94	49.3	0	0	---	0.00	30.328 
04:35	50.8	50.8	50.8	94	49.1	0	0	---	0.00	30.328 
04:40	50.8	50.8	50.8	94	49.1	0	0	---	0.00	30.328 
04:45	50.8	50.8	50.8	94	49.1	0	0	---	0.00	30.331 
04:50	50.8	50.8	50.8	94	49.1	0	0	---	0.00	30.331 
04:55	50.8	50.8	50.8	94	49.1	0	0	---	0.00	30.331 
05:00	50.8	50.8	50.8	94	49.1	0	0	---	0.00	30.338 
05:05	50.8	50.8	50.8	94	49.1	0	0	---	0.00	30.338 
05:10	50.7	50.7	50.7	94	49.0	0	0	---	0.00	30.338 
05:15	50.5	50.5	50.5	94	48.8	0	0	---	0.00	30.341 
05:20	50.4	50.4	50.4	94	48.7	0	0	---	0.00	30.341 
05:25	50.1	50.1	50.1	94	48.4	0	0	---	0.00	30.341 
05:30	50.1	50.1	50.1	94	48.4	0	0	---	0.00	30.342 
05:35	49.9	49.9	49.9	94	48.2	0	0	---	0.00	30.342 
05:40	49.8	49.8	49.8	94	48.1	0	0	---	0.00	30.342 
05:45	49.6	49.6	49.6	94	47.9	0	0	---	0.00	30.344 
05:50	49.6	49.6	49.6	94	47.9	0	0	---	0.00	30.344 
05:55	49.5	49.5	49.5	94	47.8	0	0	---	0.00	30.344 
06:00	49.5	49.5	49.5	95	48.1	0	0	---	0.00	30.344 
06:05	49.5	49.5	49.5	94	47.8	0	0	---	0.00	30.344 
06:10	49.5	49.5	49.5	95	48.1	0	0	---	0.00	30.344 
06:15	49.4	49.4	49.4	95	48.0	0	0	---	0.00	30.348 
06:20	49.2	49.2	49.2	95	47.8	0	0	---	0.00	30.348 
06:25	49.1	49.1	49.1	95	47.7	0	0	---	0.00	30.348 
06:30	49.1	49.1	49.1	95	47.7	0	0	---	0.00	30.353 
06:35	48.8	48.8	48.8	94	47.1	0	0	---	0.00	30.353 
06:40	48.8	48.8	48.8	95	47.4	0	0	---	0.00	30.353 
06:45	48.6	48.6	48.6	95	47.2	0	0	---	0.00	30.358 
06:50	48.6	48.6	48.6	95	47.2	0	0	---	0.00	30.358 
06:55	48.5	48.5	48.5	95	47.1	0	0	---	0.00	30.358 
07:00	48.5	48.5	48.5	95	47.1	0	0	---	0.00	30.361 
07:05	48.3	48.3	48.3	95	46.9	0	0	---	0.00	30.361 
07:10	48.2	48.2	48.2	95	46.8	0	0	---	0.00	30.361 
07:15	48.0	48.0	48.0	95	46.6	0	0	---	0.00	30.371 
07:20	48.0	48.0	48.0	95	46.6	0	0	---	0.00	30.371 
07:25	47.9	47.9	47.9	95	46.5	0	0	---	0.00	30.371 
07:30	47.9	47.9	47.9	95	46.5	0	0	---	0.00	30.375 
07:35	47.7	47.7	47.7	95	46.3	0	0	---	0.00	30.375 
07:40	47.6	47.6	47.6	95	46.2	0	0	---	0.00	30.375 
07:45	47.6	47.6	47.6	95	46.2	0	0	---	0.00	30.378 
07:50	47.6	47.6	47.6	95	46.2	0	0	---	0.00	30.378 
07:55	47.6	47.6	47.6	95	46.2	0	0	---	0.00	30.378 
08:00	47.7	47.7	47.7	95	46.3	0	0	---	0.00	30.383 
08:05	47.7	47.7	47.7	95	46.3	0	0	---	0.00	30.383 
08:10	47.9	47.9	47.9	95	46.5	0	0	---	0.00	30.383 
08:15	48.0	48.0	48.0	95	46.6	0	0	---	0.00	30.390 
08:20	48.2	48.2	48.2	95	46.8	0	0	---	0.00	30.390 
08:25	48.5	48.5	48.5	95	47.1	0	0	---	0.00	30.390 
08:30	48.6	48.6	48.6	95	47.2	0	0	---	0.00	30.393 
08:35	48.8	48.8	48.8	95	47.4	0	0	---	0.00	30.393 
08:40	48.9	48.9	48.9	96	47.8	0	0	---	0.00	30.393 
08:45	49.2	49.2	49.2	96	48.1	0	0	---	0.00	30.395 
08:50	49.6	49.6	49.6	96	48.5	0	0	---	0.00	30.395 
08:55	50.2	50.2	50.2	96	49.1	0	0	---	0.00	30.395 
09:00	50.5	50.5	50.5	96	49.4	0	0	---	0.00	30.392 
09:05	51.1	51.1	51.1	96	50.0	0	0	---	0.00	30.392 
09:10	51.7	51.7	51.7	96	50.6	0	0	---	0.00	30.392 
09:15	52.5	52.5	52.5	96	51.4	0	0	---	0.00	30.402 
09:20	53.2	53.2	53.2	96	52.1	0	1	68	0.00	30.402 
09:25	53.9	53.9	53.9	96	52.8	0	1	68	0.00	30.402 
09:30	54.4	54.4	54.4	96	53.3	0	1	68	0.00	30.403 
09:35	54.7	54.7	54.7	96	53.6	0	2	68	0.00	30.403 
09:40	55.1	55.1	55.1	95	53.7	0	2	68	0.00	30.403 
09:45	55.7	55.7	55.7	95	54.3	0	0	---	0.00	30.401 
09:50	56.3	56.3	56.3	94	54.6	0	1	68	0.00	30.401 
09:55	56.9	56.9	56.9	93	54.9	0	1	68	0.00	30.401 
10:00	57.6	57.6	57.6	91	55.0	0	0	---	0.00	30.401 
10:05	58.6	58.6	58.6	90	55.7	0	1	68	0.00	30.401 
10:10	59.5	59.5	59.5	88	55.9	0	0	---	0.00	30.401 
10:15	60.4	60.4	60.4	85	55.9	0	1	68	0.00	30.400 
10:20	61.3	61.3	61.3	83	56.1	0	0	---	0.00	30.400 
10:25	62.6	62.6	62.6	78	55.6	0	1	68	0.00	30.400 
10:30	63.7	63.7	63.7	76	56.0	0	1	68	0.00	30.396 
10:35	64.5	64.5	64.5	73	55.6	0	1	68	0.00	30.396 
10:40	65.6	65.6	65.6	72	56.3	0	1	68	0.00	30.396 
10:45	66.8	66.8	66.8	66	55.1	0	2	68	0.00	30.395 
10:50	67.9	67.9	67.9	65	55.7	0	1	68	0.00	30.395 
10:55	68.9	68.9	68.9	64	56.2	0	2	68	0.00	30.395 
11:00	69.8	69.8	69.8	62	56.2	0	2	68	0.00	30.391 
11:05	70.4	70.4	70.4	60	55.8	0	2	68	0.00	30.391 
11:10	71.1	71.1	71.1	58	55.6	0	2	68	0.00	30.391 
11:15	71.6	71.6	71.6	58	56.0	0	2	68	0.00	30.386 
11:20	72.1	72.1	72.1	58	56.5	0	1	68	0.00	30.386 
11:25	72.7	72.7	72.7	55	55.6	0	3	68	0.00	30.386 
11:30	73.2	73.2	73.2	56	56.5	0	2	270	0.00	30.377 
11:35	73.7	73.7	73.7	55	56.5	0	1	270	0.00	30.377 
11:40	74.2	74.2	74.2	54	56.5	0	1	270	0.00	30.377 
11:45	74.9	74.9	74.9	52	56.1	0	2	270	0.00	30.374 
11:50	75.3	75.3	77.7	52	56.4	0	1	270	0.00	30.374 
11:55	75.3	75.3	77.7	52	56.4	0	2	248	0.00	30.374 
12:00	75.8	75.8	78.0	51	56.4	0	2	22	0.00	30.374 
12:05	76.0	76.0	78.1	51	56.5	0	2	270	0.00	30.374 
12:10	76.3	76.3	78.2	52	57.4	0	2	270	0.00	30.374 
12:15	76.3	76.3	78.2	50	56.3	0	2	270	0.00	30.373 
12:20	76.7	76.7	78.4	49	56.1	0	3	68	0.00	30.373 
12:25	77.0	77.0	78.6	49	56.4	0	4	68	0.00	30.373 
12:30	77.2	77.2	78.7	50	57.1	0	3	90	0.00	30.372 
12:35	77.4	77.4	78.8	48	56.1	0	2	202	0.00	30.372 
12:40	77.6	77.6	79.0	51	58.0	0	2	202	0.00	30.372 
12:45	77.9	77.9	79.0	47	56.0	0	1	202	0.00	30.371 
12:50	78.1	78.1	79.1	46	55.6	0	2	202	0.00	30.371 
12:55	77.9	77.9	79.0	47	56.0	0	2	202	0.00	30.371 
13:00	78.1	78.1	79.1	46	55.6	0	2	292	0.00	30.368 
13:05	78.1	78.1	79.0	45	55.0	0	2	292	0.00	30.368 
13:10	78.5	78.5	79.3	45	55.4	0	1	292	0.00	30.368 
13:15	78.8	78.8	79.4	44	55.0	0	1	292	0.00	30.361 
13:20	79.2	79.2	79.6	43	54.7	0	3	292	0.00	30.361 
13:25	79.2	79.2	79.5	42	54.1	1	2	292	0.00	30.361 
13:30	79.4	79.4	79.8	43	54.9	0	2	22	0.00	30.358 
13:35	79.4	79.4	79.7	42	54.3	1	6	22	0.00	30.358 
13:40	79.4	79.4	79.9	45	56.2	0	3	112	0.00	30.358 
13:45	79.6	79.6	80.0	44	55.7	0	1	112	0.00	30.356 
13:50	79.4	79.4	79.5	40	52.9	1	3	112	0.00	30.356 
13:55	79.4	79.4	79.5	40	52.9	0	2	112	0.00	30.356 
14:00	79.6	79.6	79.9	43	55.1	0	2	202	0.00	30.345 
14:05	79.8	79.8	79.9	41	54.0	0	2	180	0.00	30.345 
14:10	79.9	79.9	80.2	44	56.0	0	0	---	0.00	30.345 
14:15	80.1	80.1	80.1	41	54.2	0	1	180	0.00	30.341 
14:20	80.1	80.1	79.8	38	52.2	0	1	180	0.00	30.341 
14:25	80.1	80.1	79.9	39	52.9	0	1	180	0.00	30.341 
14:30	80.3	80.3	80.1	40	53.8	0	1	270	0.00	30.340 
14:35	80.3	80.3	80.2	41	54.4	0	2	270	0.00	30.340 
14:40	80.3	80.3	80.1	40	53.8	0	1	270	0.00	30.340 
14:45	80.5	80.5	80.3	40	53.9	0	2	270	0.00	30.333 
14:50	80.7	80.7	80.4	40	54.1	0	1	270	0.00	30.333 
14:55	80.7	80.7	80.3	39	53.4	0	2	270	0.00	30.333 
15:00	80.7	80.7	80.2	37	52.0	0	2	270	0.00	30.330 
15:05	80.5	80.5	80.1	38	52.5	0	1	270	0.00	30.330 
15:10	80.5	80.5	80.2	39	53.2	0	2	270	0.00	30.330 
15:15	80.5	80.5	80.2	39	53.2	0	3	270	0.00	30.325 
15:20	80.5	80.5	80.1	38	52.5	1	3	112	0.00	30.325 
15:25	80.3	80.3	80.0	38	52.4	0	2	112	0.00	30.325 
15:30	80.5	80.5	80.1	38	52.5	0	1	112	0.00	30.322 
15:35	80.7	80.7	80.1	36	51.2	0	1	112	0.00	30.322 
15:40	80.7	80.7	80.2	37	52.0	0	1	112	0.00	30.322 
15:45	80.9	80.9	80.3	37	52.2	0	1	112	0.00	30.319 
15:50	81.1	81.1	80.4	36	51.6	0	2	112	0.00	30.319 
15:55	81.1	81.1	80.4	37	52.3	0	2	112	0.00	30.319 
16:00	81.2	81.2	80.6	38	53.1	0	1	112	0.00	30.314 
16:05	81.1	81.1	80.4	37	52.3	0	2	112	0.00	30.314 
16:10	80.9	80.9	80.3	37	52.2	0	1	112	0.00	30.314 
16:15	80.7	80.7	80.3	39	53.4	0	2	112	0.00	30.315 
16:20	80.5	80.5	80.0	37	51.8	0	3	112	0.00	30.315 
16:25	80.3	80.3	79.8	36	50.9	0	1	112	0.00	30.315 
16:30	80.1	80.1	79.8	37	51.5	0	1	112	0.00	30.312 
16:35	80.1	80.1	79.7	36	50.7	0	2	112	0.00	30.312 
16:40	80.1	80.1	79.8	38	52.2	1	4	112	0.00	30.312 
16:45	80.1	80.1	79.8	37	51.5	0	2	292	0.00	30.310 
16:50	80.1	80.1	79.7	36	50.7	0	2	292	0.00	30.310 
16:55	80.1	80.1	79.8	38	52.2	0	2	292	0.00	30.310 
17:00	80.1	80.1	79.7	36	50.7	0	1	292	0.00	30.310 
17:05	80.1	80.1	79.8	37	51.5	0	1	292	0.00	30.310 
17:10	80.1	80.1	79.8	37	51.5	0	1	292	0.00	30.310 
17:15	80.1	80.1	79.8	37	51.5	0	3	292	0.00	30.312 
17:20	80.1	80.1	79.7	36	50.7	0	1	315	0.00	30.312 
17:25	80.1	80.1	79.8	37	51.5	0	5	112	0.00	30.312 
17:30	79.9	79.9	79.5	35	49.8	0	3	112	0.00	30.312 
17:35	79.9	79.9	79.5	35	49.8	0	2	135	0.00	30.312 
17:40	79.9	79.9	79.6	37	51.3	0	1	135	0.00	30.312 
17:45	79.8	79.8	79.5	36	50.4	0	2	112	0.00	30.312 
17:50	79.6	79.6	79.4	37	51.0	0	1	112	0.00	30.312 
17:55	79.4	79.4	79.3	37	50.8	0	1	112	0.00	30.312 
18:00	79.2	79.2	79.3	38	51.4	0	1	112	0.00	30.315 
18:05	79.0	79.0	79.2	38	51.2	0	1	112	0.00	30.315 
18:10	78.8	78.8	79.1	39	51.7	0	0	---	0.00	30.315 
18:15	78.5	78.5	79.0	40	52.1	0	0	---	0.00	30.315 
18:20	78.3	78.3	78.9	40	52.0	0	0	---	0.00	30.315 
18:25	78.1	78.1	78.8	40	51.8	0	1	112	0.00	30.315 
18:30	77.7	77.7	78.7	42	52.8	0	0	---	0.00	30.319 
18:35	77.4	77.4	78.6	43	53.1	0	0	---	0.00	30.319 
18:40	77.0	77.0	78.3	42	52.1	0	0	---	0.00	30.319 
18:45	76.7	76.7	78.3	44	53.1	0	0	---	0.00	30.318 
18:50	76.3	76.3	78.1	46	54.0	0	0	---	0.00	30.318 
18:55	75.8	75.8	77.9	46	53.5	0	0	---	0.00	30.318 
19:00	75.3	75.3	77.7	49	54.8	0	0	---	0.00	30.319 
19:05	74.6	74.6	74.6	49	54.2	0	0	---	0.00	30.319 
19:10	73.9	73.9	73.9	50	54.1	0	0	---	0.00	30.319 
19:15	73.3	73.3	73.3	51	54.1	0	0	---	0.00	30.322 
19:20	72.7	72.7	72.7	54	55.1	0	0	---	0.00	30.322 
19:25	72.0	72.0	72.0	55	54.9	0	0	---	0.00	30.322 
19:30	71.3	71.3	71.3	56	54.8	0	0	---	0.00	30.324 
19:35	70.8	70.8	70.8	57	54.8	0	0	---	0.00	30.324 
19:40	70.1	70.1	70.1	57	54.1	0	0	---	0.00	30.324 
19:45	69.4	69.4	69.4	58	54.0	0	0	---	0.00	30.333 
19:50	68.8	68.8	68.8	59	53.9	0	0	---	0.00	30.333 
19:55	68.3	68.3	68.3	60	53.9	0	0	---	0.00	30.333 
20:00	67.8	67.8	67.8	61	53.9	0	0	---	0.00	30.337 
20:05	67.3	67.3	67.3	62	53.8	0	0	---	0.00	30.337 
20:10	66.9	66.9	66.9	64	54.3	0	0	---	0.00	30.337 
20:15	66.4	66.4	66.4	65	54.3	0	0	---	0.00	30.337 
20:20	66.1	66.1	66.1	66	54.4	0	0	---	0.00	30.337 
20:25	65.6	65.6	65.6	67	54.3	0	0	---	0.00	30.337 
20:30	65.3	65.3	65.3	68	54.5	0	0	---	0.00	30.338 
20:35	65.0	65.0	65.0	69	54.6	0	0	---	0.00	30.338 
20:40	64.7	64.7	64.7	71	55.1	0	0	---	0.00	30.338 
20:45	64.3	64.3	64.3	72	55.1	0	0	---	0.00	30.340 
20:50	64.0	64.0	64.0	73	55.2	0	0	---	0.00	30.340 
20:55	63.7	63.7	63.7	74	55.3	0	0	---	0.00	30.340 
21:00	63.4	63.4	63.4	75	55.3	0	0	---	0.00	30.340 
21:05	63.2	63.2	63.2	75	55.1	0	0	---	0.00	30.340 
21:10	62.9	62.9	62.9	76	55.2	0	0	---	0.00	30.340 
21:15	62.6	62.6	62.6	77	55.3	0	0	---	0.00	30.341 
21:20	62.4	62.4	62.4	77	55.1	0	0	---	0.00	30.341 
21:25	62.1	62.1	62.1	78	55.2	0	0	---	0.00	30.341 
21:30	62.0	62.0	62.0	79	55.4	0	0	---	0.00	30.343 
21:35	61.8	61.8	61.8	79	55.2	0	0	---	0.00	30.343 
21:40	61.5	61.5	61.5	79	54.9	0	0	---	0.00	30.343 
21:45	61.3	61.3	61.3	80	55.1	0	0	---	0.00	30.346 
21:50	61.2	61.2	61.2	80	55.0	0	0	---	0.00	30.346 
21:55	60.9	60.9	60.9	81	55.0	0	0	---	0.00	30.346 
22:00	60.7	60.7	60.7	81	54.8	0	0	---	0.00	30.340 
22:05	60.5	60.5	60.5	82	55.0	0	0	---	0.00	30.340 
22:10	60.4	60.4	60.4	83	55.2	0	0	---	0.00	30.340 
22:15	60.2	60.2	60.2	83	55.0	0	0	---	0.00	30.334 
22:20	60.1	60.1	60.1	84	55.2	0	0	---	0.00	30.334 
22:25	59.9	59.9	59.9	84	55.0	0	0	---	0.00	30.334 
22:30	59.8	59.8	59.8	84	55.0	0	0	---	0.00	30.329 
22:35	59.6	59.6	59.6	84	54.8	0	0	---	0.00	30.329 
22:40	59.5	59.5	59.5	84	54.7	0	0	---	0.00	30.329 
22:45	59.3	59.3	59.3	85	54.8	0	0	---	0.00	30.331 
22:50	59.2	59.2	59.2	85	54.7	0	0	---	0.00	30.331 
22:55	59.0	59.0	59.0	85	54.5	0	0	---	0.00	30.331 
23:00	58.9	58.9	58.9	86	54.7	0	0	---	0.00	30.333 
23:05	58.7	58.7	58.7	86	54.5	0	0	---	0.00	30.333 
23:10	58.6	58.6	58.6	86	54.4	0	0	---	0.00	30.333 
23:15	58.4	58.4	58.4	86	54.2	0	0	---	0.00	30.323 
23:20	58.3	58.3	58.3	86	54.1	0	0	---	0.00	30.323 
23:25	58.1	58.1	58.1	87	54.2	0	0	---	0.00	30.323 
23:30	58.0	58.0	58.0	87	54.1	0	0	---	0.00	30.323 
23:35	57.8	57.8	57.8	87	54.0	0	0	---	0.00	30.323 
23:40	57.8	57.8	57.8	87	54.0	0	0	---	0.00	30.323 
23:45	57.6	57.6	57.6	88	54.1	0	0	---	0.00	30.324 
23:50	57.6	57.6	57.6	88	54.1	0	0	---	0.00	30.324 
23:55	57.5	57.5	57.5	88	54.0	0	0	---	0.00	30.324 

CoCoRaHS
IN-AL-39
A2 Web Hosting
Creative Commons License
GoDaddy
search engine by freefind advanced

loaded 2018-11-19 11:21:42 • last modified 2010-11-18 10:43:29
Privacy PolicyDisclaimer
• wx.awcolley.com is powered by PmWiki v.2002016 •
• all content (unless otherwise noted) © 2018 A W Colley